Time;durP1;ratioP1;P1;durP2;ratioP2;P2;SDS_P1;SDS_P2;PMS_P1;PMS_P2;Temp;Humidity;BMP_temperature;BMP_pressure;BME280_temperature;BME280_humidity;BME280_pressure;Samples;Min_cycle;Max_cycle;Signal;HPM_P1;HPM_P2
2021/09/06 00:00:44;;;;;;;7.50;4.40;;;19.40;76.70;;;;;;5072711;28;20113;-50
2021/09/06 00:03:09;;;;;;;5.85;3.80;;;19.50;77.10;;;;;;5073958;28;20027;-49
2021/09/06 00:05:35;;;;;;;8.88;4.35;;;19.40;77.10;;;;;;5076235;28;20021;-50
2021/09/06 00:08:01;;;;;;;5.05;4.20;;;19.40;76.90;;;;;;5057951;28;20492;-49
2021/09/06 00:10:40;;;;;;;7.13;4.45;;;19.20;77.50;;;;;;5076287;28;20028;-52
2021/09/06 00:13:07;;;;;;;7.85;4.43;;;19.10;78.10;;;;;;5075737;28;20108;-52
2021/09/06 00:15:34;;;;;;;6.63;4.38;;;19.00;78.50;;;;;;5076023;28;20044;-50
2021/09/06 00:18:00;;;;;;;6.00;4.40;;;18.90;78.90;;;;;;5057431;28;20125;-51
2021/09/06 00:20:27;;;;;;;7.68;4.85;;;18.60;79.80;;;;;;5075929;28;20032;-52
2021/09/06 00:22:55;;;;;;;7.22;4.72;;;18.70;79.90;;;;;;5075881;28;20481;-50
2021/09/06 00:25:22;;;;;;;6.10;4.45;;;18.80;80.00;;;;;;5057431;28;20464;-51
2021/09/06 00:27:48;;;;;;;6.88;4.88;;;18.90;80.70;;;;;;5075895;28;20029;-49
2021/09/06 00:30:14;;;;;;;7.18;4.85;;;18.90;81.80;;;;;;5076179;28;20021;-51
2021/09/06 00:32:40;;;;;;;6.85;4.68;;;19.00;81.30;;;;;;5057487;28;20659;-51
2021/09/06 00:35:06;;;;;;;7.10;5.15;;;18.90;82.10;;;;;;5075845;28;20080;-50
2021/09/06 00:37:32;;;;;;;8.73;5.10;;;18.90;81.50;;;;;;5040535;28;20051;-49
2021/09/06 00:39:57;;;;;;;7.70;5.75;;;18.80;81.40;;;;;;5057265;28;20430;-49
2021/09/06 00:42:25;;;;;;;6.05;4.63;;;18.80;81.50;;;;;;5075566;28;20032;-49
2021/09/06 00:44:51;;;;;;;6.78;5.32;;;18.90;81.00;;;;;;5075656;28;20052;-50
2021/09/06 00:47:17;;;;;;;9.00;5.50;;;18.90;81.30;;;;;;5075431;28;20047;-50
2021/09/06 00:49:42;;;;;;;8.02;5.25;;;18.90;81.10;;;;;;5075516;28;20081;-51
2021/09/06 00:52:08;;;;;;;6.95;4.97;;;18.90;81.30;;;;;;5057076;28;20038;-48
2021/09/06 00:54:34;;;;;;;7.75;5.32;;;18.70;82.50;;;;;;5075451;28;20468;-50
2021/09/06 00:57:00;;;;;;;8.50;5.50;;;18.60;81.90;;;;;;5075065;28;20500;-49
2021/09/06 00:59:26;;;;;;;6.63;5.07;;;18.60;83.00;;;;;;5075144;28;20024;-49
2021/09/06 01:01:52;;;;;;;7.22;4.78;;;18.40;83.60;;;;;;5075144;28;20025;-49
2021/09/06 01:04:18;;;;;;;6.85;5.50;;;18.30;83.00;;;;;;5056797;28;20368;-49
2021/09/06 01:06:44;;;;;;;8.10;4.95;;;18.20;84.00;;;;;;5056732;28;20039;-51
2021/09/06 01:09:09;;;;;;;13.02;6.45;;;18.20;83.90;;;;;;5075179;28;20031;-50
2021/09/06 01:11:35;;;;;;;8.43;6.05;;;18.30;82.90;;;;;;5023267;28;20028;-50
2021/09/06 01:14:01;;;;;;;7.70;6.03;;;18.30;83.50;;;;;;5074642;28;20123;-50
2021/09/06 01:16:27;;;;;;;13.35;5.70;;;18.30;83.60;;;;;;5074910;28;20024;-51
2021/09/06 01:18:53;;;;;;;9.50;5.63;;;18.30;83.40;;;;;;5006621;28;20056;-51
2021/09/06 01:21:19;;;;;;;9.23;6.18;;;18.30;83.30;;;;;;5074700;28;20103;-49
2021/09/06 01:23:45;;;;;;;8.48;5.97;;;18.30;83.00;;;;;;5074763;28;20115;-48
2021/09/06 01:26:11;;;;;;;7.10;5.38;;;18.30;83.20;;;;;;5056441;28;20124;-51
2021/09/06 01:28:37;;;;;;;7.55;5.68;;;18.30;83.30;;;;;;5074655;28;20027;-51
2021/09/06 01:31:03;;;;;;;8.20;6.03;;;18.30;83.10;;;;;;5074627;28;20107;-50
2021/09/06 01:33:29;;;;;;;9.10;5.57;;;18.20;82.80;;;;;;5075020;28;20103;-50
2021/09/06 01:35:54;;;;;;;9.50;6.22;;;18.20;83.30;;;;;;5074718;28;20120;-50
2021/09/06 01:38:20;;;;;;;7.57;5.97;;;18.10;83.30;;;;;;5073183;28;20494;-49
2021/09/06 01:40:47;;;;;;;8.73;6.18;;;18.10;83.60;;;;;;5074802;28;20023;-50
2021/09/06 01:43:13;;;;;;;9.38;5.85;;;18.00;83.20;;;;;;5074297;28;20032;-50
2021/09/06 01:45:38;;;;;;;10.40;6.65;;;18.00;83.30;;;;;;5074361;28;20025;-48
2021/09/06 01:48:04;;;;;;;7.50;6.22;;;17.90;83.70;;;;;;5055999;28;20553;-50
2021/09/06 01:50:30;;;;;;;10.18;6.85;;;17.90;84.00;;;;;;4990294;28;20381;-51
2021/09/06 01:52:56;;;;;;;9.45;6.68;;;17.90;84.20;;;;;;5022561;28;20032;-48
2021/09/06 01:55:22;;;;;;;12.10;7.13;;;17.90;84.30;;;;;;5074355;28;20035;-51
2021/09/06 01:57:48;;;;;;;8.90;6.38;;;17.80;84.60;;;;;;5055804;28;20048;-49
2021/09/06 02:00:18;;;;;;;9.40;7.10;;;17.80;84.70;;;;;;5074495;28;20044;-49
2021/09/06 02:02:44;;;;;;;10.75;7.18;;;17.70;85.10;;;;;;5074164;28;20032;-51
2021/09/06 02:05:10;;;;;;;7.97;6.22;;;17.70;85.30;;;;;;5074210;28;20472;-51
2021/09/06 02:07:36;;;;;;;8.82;6.70;;;17.70;85.40;;;;;;5055916;28;20032;-51
2021/09/06 02:10:04;;;;;;;8.32;6.70;;;17.70;85.00;;;;;;5073992;28;20098;-51
2021/09/06 02:12:29;;;;;;;7.93;6.68;;;17.60;85.10;;;;;;5038771;28;20480;-50
2021/09/06 02:14:55;;;;;;;7.68;6.53;;;17.60;85.30;;;;;;5005644;28;20039;-51
2021/09/06 02:17:21;;;;;;;8.90;7.25;;;17.60;85.30;;;;;;5070311;28;20079;-50
2021/09/06 02:19:46;;;;;;;9.63;7.30;;;17.60;85.30;;;;;;5053680;28;20033;-49
2021/09/06 02:22:12;;;;;;;12.15;6.65;;;17.50;85.50;;;;;;5035454;28;20048;-50
2021/09/06 02:24:38;;;;;;;17.48;7.40;;;17.50;85.70;;;;;;5053893;28;20025;-51
2021/09/06 02:27:04;;;;;;;12.57;6.90;;;17.50;85.20;;;;;;5052940;28;20104;-50
2021/09/06 02:29:30;;;;;;;9.30;6.32;;;17.50;85.40;;;;;;5018643;28;20163;-49
2021/09/06 02:31:55;;;;;;;10.30;6.90;;;17.40;85.30;;;;;;5053496;28;20387;-48
2021/09/06 02:34:21;;;;;;;12.95;6.85;;;17.40;85.30;;;;;;5035290;28;20033;-48
2021/09/06 02:36:47;;;;;;;12.02;7.03;;;17.40;85.80;;;;;;5035176;28;20044;-51
2021/09/06 02:39:13;;;;;;;11.60;6.13;;;17.30;85.70;;;;;;5053372;28;20021;-50
2021/09/06 02:41:38;;;;;;;11.38;6.32;;;17.30;85.60;;;;;;5053510;28;20029;-49
2021/09/06 02:44:04;;;;;;;12.13;6.85;;;17.30;85.50;;;;;;5002293;28;20119;-49
2021/09/06 02:49:05;;;;;;;10.07;6.50;;;17.30;85.60;;;;;;5178898;22;20053;-49
2021/09/06 02:51:31;;;;;;;8.02;6.28;;;17.30;85.50;;;;;;5018779;28;20032;-48
2021/09/06 02:53:57;;;;;;;8.48;6.40;;;17.30;85.30;;;;;;5018837;28;20059;-51
2021/09/06 02:56:22;;;;;;;10.40;6.22;;;17.20;85.00;;;;;;5035531;28;20083;-48
2021/09/06 02:58:48;;;;;;;8.30;6.45;;;17.20;85.10;;;;;;5054371;28;20036;-47
2021/09/06 03:01:14;;;;;;;10.00;6.20;;;17.20;84.90;;;;;;5053353;28;20028;-49
2021/09/06 03:03:40;;;;;;;11.07;5.82;;;17.20;85.00;;;;;;5053704;28;20022;-50
2021/09/06 03:06:08;;;;;;;9.07;6.60;;;17.20;84.90;;;;;;5053575;28;20036;-48
2021/09/06 03:08:34;;;;;;;10.73;6.00;;;17.10;85.20;;;;;;5018636;28;20071;-48
2021/09/06 03:11:01;;;;;;;10.55;5.95;;;17.10;85.20;;;;;;5002389;28;20057;-48
2021/09/06 03:13:29;;;;;;;8.35;5.50;;;17.00;85.50;;;;;;5053491;28;20029;-47
2021/09/06 03:15:55;;;;;;;9.00;5.32;;;17.00;85.20;;;;;;5053149;28;20025;-49
2021/09/06 03:18:20;;;;;;;7.18;5.43;;;17.00;85.10;;;;;;5053182;28;20029;-50
2021/09/06 03:20:46;;;;;;;7.63;5.85;;;17.00;84.90;;;;;;5053393;28;20017;-49
2021/09/06 03:23:12;;;;;;;7.80;5.82;;;16.90;84.90;;;;;;5053099;28;20143;-49
2021/09/06 03:25:38;;;;;;;11.73;5.30;;;16.90;84.80;;;;;;5053146;28;20029;-51
2021/09/06 03:28:03;;;;;;;8.85;6.30;;;16.90;85.10;;;;;;5018689;28;20090;-51
2021/09/06 03:30:29;;;;;;;8.68;5.55;;;16.90;85.60;;;;;;5018488;28;20033;-51
2021/09/06 03:32:55;;;;;;;7.45;5.65;;;16.90;85.90;;;;;;5053207;28;20396;-50
2021/09/06 03:35:21;;;;;;;8.10;5.93;;;16.80;86.30;;;;;;5053294;28;20025;-50
2021/09/06 03:37:47;;;;;;;8.18;4.90;;;16.80;86.00;;;;;;5055430;28;20052;-48
2021/09/06 03:40:12;;;;;;;8.75;5.30;;;16.80;85.80;;;;;;5056930;28;20021;-51
2021/09/06 03:42:38;;;;;;;8.35;5.25;;;16.70;86.30;;;;;;5056743;28;20021;-49
2021/09/06 03:45:05;;;;;;;9.48;5.65;;;16.70;86.30;;;;;;5056721;28;20033;-51
2021/09/06 03:47:32;;;;;;;14.18;5.88;;;16.80;86.20;;;;;;5002021;28;20042;-51
2021/09/06 03:49:58;;;;;;;12.07;5.90;;;16.80;86.20;;;;;;5036986;28;20029;-51
2021/09/06 03:52:24;;;;;;;9.25;5.22;;;16.80;86.50;;;;;;5036866;28;20379;-50
2021/09/06 03:54:50;;;;;;;8.98;5.47;;;16.80;86.50;;;;;;5036916;28;20104;-50
2021/09/06 03:57:15;;;;;;;9.77;6.53;;;16.80;86.90;;;;;;5036665;28;20354;-50
2021/09/06 03:59:41;;;;;;;11.15;6.28;;;16.70;86.20;;;;;;5036810;28;20044;-48
2021/09/06 04:02:07;;;;;;;9.73;5.35;;;16.80;86.00;;;;;;5034784;28;20419;-51
2021/09/06 04:04:33;;;;;;;8.23;5.38;;;16.70;85.90;;;;;;5036350;28;20021;-50
2021/09/06 04:06:59;;;;;;;17.38;6.47;;;16.80;86.00;;;;;;5036647;28;20022;-51
2021/09/06 04:09:24;;;;;;;16.27;7.35;;;16.70;86.10;;;;;;5036694;28;20022;-50
2021/09/06 04:11:50;;;;;;;12.35;5.32;;;16.70;86.60;;;;;;5051279;28;20104;-49
2021/09/06 04:14:17;;;;;;;9.93;5.75;;;16.60;86.20;;;;;;5018263;28;20064;-51
2021/09/06 04:16:43;;;;;;;8.82;5.45;;;16.40;87.30;;;;;;5034583;28;20052;-51
2021/09/06 04:19:09;;;;;;;8.10;5.75;;;16.30;87.70;;;;;;5036283;28;20052;-51
2021/09/06 04:21:35;;;;;;;9.55;6.43;;;16.00;88.70;;;;;;5036256;28;20075;-51
2021/09/06 04:24:01;;;;;;;9.93;6.05;;;16.10;89.00;;;;;;5036359;28;20033;-49
2021/09/06 04:26:26;;;;;;;9.18;5.68;;;16.10;88.90;;;;;;5051289;28;20067;-50
2021/09/06 04:28:52;;;;;;;8.77;6.03;;;16.10;88.90;;;;;;5036032;28;20032;-49
2021/09/06 04:31:18;;;;;;;8.15;5.38;;;16.00;89.30;;;;;;5035880;28;20376;-51
2021/09/06 04:33:44;;;;;;;8.60;5.13;;;16.10;89.40;;;;;;5036018;28;20029;-49
2021/09/06 04:36:10;;;;;;;12.15;6.07;;;16.10;89.30;;;;;;5034549;28;20389;-50
2021/09/06 04:38:35;;;;;;;9.15;5.72;;;16.20;89.00;;;;;;5034531;28;20123;-49
2021/09/06 04:41:01;;;;;;;8.98;6.00;;;16.40;88.60;;;;;;5050704;28;20037;-49
2021/09/06 04:43:27;;;;;;;9.57;6.05;;;16.50;88.00;;;;;;5036039;28;20018;-51
2021/09/06 04:45:53;;;;;;;13.70;7.82;;;16.60;87.90;;;;;;5035742;28;20391;-48
2021/09/06 04:48:19;;;;;;;10.20;5.80;;;16.70;88.00;;;;;;5046348;28;20049;-50
2021/09/06 04:50:44;;;;;;;11.45;6.05;;;16.60;87.70;;;;;;5055409;28;20498;-50
2021/09/06 04:53:10;;;;;;;6.82;5.13;;;16.70;87.70;;;;;;5055704;28;20018;-49
2021/09/06 04:55:36;;;;;;;10.23;5.10;;;16.80;87.80;;;;;;5055364;28;20112;-50
2021/09/06 04:58:02;;;;;;;9.60;5.22;;;16.80;87.70;;;;;;5020597;28;20120;-50
2021/09/06 05:00:27;;;;;;;8.20;4.95;;;16.80;87.90;;;;;;5020537;28;20392;-50
2021/09/06 05:02:53;;;;;;;15.40;6.18;;;16.90;88.30;;;;;;5055810;28;20025;-51
2021/09/06 05:05:19;;;;;;;11.30;6.20;;;16.80;88.50;;;;;;5055263;28;20100;-49
2021/09/06 05:07:45;;;;;;;8.93;5.03;;;16.80;88.90;;;;;;4987900;28;20064;-51
2021/09/06 05:10:10;;;;;;;7.72;5.40;;;17.00;89.20;;;;;;5020571;28;20033;-51
2021/09/06 05:12:36;;;;;;;7.25;5.82;;;17.00;89.50;;;;;;5054987;28;20127;-50
2021/09/06 05:15:02;;;;;;;8.80;4.93;;;17.10;89.80;;;;;;5055268;28;20037;-50
2021/09/06 05:17:28;;;;;;;9.40;5.35;;;17.10;90.00;;;;;;5055183;28;20033;-51
2021/09/06 05:19:54;;;;;;;7.80;5.25;;;17.20;90.00;;;;;;5054878;28;20017;-51
2021/09/06 05:22:19;;;;;;;7.03;5.60;;;17.40;90.00;;;;;;5020319;28;20056;-50
2021/09/06 05:24:45;;;;;;;9.63;5.00;;;17.40;90.10;;;;;;5055104;28;20090;-49
2021/09/06 05:27:11;;;;;;;10.93;5.78;;;17.50;90.30;;;;;;5020027;28;20115;-48
2021/09/06 05:29:38;;;;;;;9.23;5.15;;;17.60;90.20;;;;;;5019952;28;20030;-50
2021/09/06 05:32:04;;;;;;;8.07;5.20;;;17.70;90.20;;;;;;5020469;28;20037;-49
2021/09/06 05:34:30;;;;;;;7.97;4.97;;;17.90;90.40;;;;;;4987107;28;20029;-50
2021/09/06 05:36:56;;;;;;;8.43;5.18;;;17.90;90.10;;;;;;5020099;28;20041;-50
2021/09/06 05:39:21;;;;;;;7.95;5.28;;;17.90;89.40;;;;;;5054806;28;20047;-51
2021/09/06 05:41:47;;;;;;;7.68;5.50;;;18.00;88.60;;;;;;5054702;28;20468;-50
2021/09/06 05:44:13;;;;;;;7.38;5.30;;;18.10;87.70;;;;;;4987203;28;20036;-51
2021/09/06 05:46:39;;;;;;;8.82;5.65;;;18.20;88.00;;;;;;5054655;28;20367;-49
2021/09/06 05:49:04;;;;;;;8.98;6.05;;;18.20;87.70;;;;;;5019470;28;20115;-49
2021/09/06 05:51:30;;;;;;;10.10;5.25;;;18.20;87.60;;;;;;5054352;28;20021;-50
2021/09/06 05:53:56;;;;;;;8.52;5.90;;;18.30;86.90;;;;;;5003247;28;20029;-49
2021/09/06 05:56:21;;;;;;;7.28;5.22;;;18.40;86.90;;;;;;5054600;28;20495;-50
2021/09/06 05:58:48;;;;;;;11.88;6.32;;;18.50;87.20;;;;;;5055100;28;20065;-49
2021/09/06 06:01:13;;;;;;;7.80;5.43;;;18.60;87.20;;;;;;5053462;28;20017;-51
2021/09/06 06:03:39;;;;;;;10.13;5.43;;;18.70;86.00;;;;;;5054652;28;20360;-49
2021/09/06 06:06:05;;;;;;;8.00;5.45;;;18.70;86.70;;;;;;5019301;28;20103;-51
2021/09/06 06:08:31;;;;;;;7.72;5.13;;;18.80;85.60;;;;;;5054690;28;20475;-49
2021/09/06 06:10:56;;;;;;;10.43;6.03;;;18.90;86.00;;;;;;5019284;28;20028;-49
2021/09/06 06:13:22;;;;;;;9.48;5.13;;;18.80;85.70;;;;;;5019880;28;20038;-50
2021/09/06 06:15:48;;;;;;;10.95;5.88;;;19.00;86.30;;;;;;5054131;28;20021;-51
2021/09/06 06:18:14;;;;;;;10.38;6.03;;;19.10;85.90;;;;;;5018872;28;20044;-51
2021/09/06 06:20:40;;;;;;;8.38;6.38;;;19.20;85.60;;;;;;5053778;28;20048;-51
2021/09/06 06:23:05;;;;;;;7.80;5.70;;;19.10;85.70;;;;;;5054069;28;20152;-51
2021/09/06 06:25:31;;;;;;;10.02;5.88;;;19.10;86.10;;;;;;5054052;28;20028;-51
2021/09/06 06:27:57;;;;;;;9.77;6.85;;;19.30;86.10;;;;;;5018956;28;20040;-49
2021/09/06 06:30:25;;;;;;;8.70;6.63;;;19.40;86.60;;;;;;5053650;28;20104;-50
2021/09/06 06:32:51;;;;;;;11.20;6.97;;;19.40;87.10;;;;;;5053927;28;20079;-48
2021/09/06 06:35:17;;;;;;;8.38;6.57;;;19.70;87.70;;;;;;5053667;28;20029;-50
2021/09/06 06:37:42;;;;;;;9.73;6.68;;;20.00;86.50;;;;;;5053428;28;20029;-48
2021/09/06 06:40:09;;;;;;;11.60;6.68;;;20.10;84.80;;;;;;5002617;28;20073;-48
2021/09/06 06:42:34;;;;;;;11.65;7.05;;;19.80;85.00;;;;;;5018925;28;20029;-50
2021/09/06 06:45:00;;;;;;;9.35;6.78;;;19.80;86.10;;;;;;5053697;28;20075;-48
2021/09/06 06:47:26;;;;;;;11.02;7.03;;;19.70;85.20;;;;;;5018721;28;20033;-49
2021/09/06 06:49:52;;;;;;;10.52;6.43;;;19.90;85.80;;;;;;4969933;28;20142;-50
2021/09/06 06:52:18;;;;;;;12.68;7.18;;;19.80;85.50;;;;;;5053661;28;20032;-48
2021/09/06 06:54:45;;;;;;;10.70;6.88;;;19.80;85.90;;;;;;5053699;28;20029;-51
2021/09/06 06:57:10;;;;;;;16.08;6.97;;;20.00;86.50;;;;;;5019053;28;20048;-50
2021/09/06 06:59:36;;;;;;;14.25;7.18;;;20.20;85.90;;;;;;5053333;28;20021;-50
2021/09/06 07:02:02;;;;;;;10.85;6.97;;;20.20;85.00;;;;;;5053262;28;20021;-49
2021/09/06 07:04:28;;;;;;;9.10;6.80;;;20.10;84.50;;;;;;5017976;28;20074;-48
2021/09/06 07:18:21;;;;;;;12.48;7.38;;;20.00;85.20;;;;;;5153344;27;20362;-48
2021/09/06 07:20:47;;;;;;;10.85;7.85;;;20.90;83.80;;;;;;5152465;27;20030;-50
2021/09/06 07:23:13;;;;;;;10.13;7.85;;;21.10;83.50;;;;;;5151341;27;20035;-50
2021/09/06 07:25:39;;;;;;;15.20;8.45;;;20.90;83.00;;;;;;5152485;27;20465;-51
2021/09/06 07:28:05;;;;;;;12.30;7.32;;;20.80;83.20;;;;;;5153328;27;20050;-50
2021/09/06 07:30:31;;;;;;;9.40;7.20;;;20.90;83.20;;;;;;5152548;27;20454;-48
2021/09/06 07:32:59;;;;;;;10.70;7.07;;;21.40;83.80;;;;;;5151880;27;20106;-50
2021/09/06 07:35:25;;;;;;;11.23;7.20;;;21.70;81.70;;;;;;5152424;27;20062;-50
2021/09/06 07:37:51;;;;;;;10.95;6.97;;;21.70;81.10;;;;;;5115967;27;20035;-48
2021/09/06 07:40:17;;;;;;;10.40;7.45;;;21.90;81.20;;;;;;5152326;27;20019;-49
2021/09/06 07:42:43;;;;;;;12.82;7.38;;;22.10;81.90;;;;;;5152026;27;20027;-49
2021/09/06 07:45:10;;;;;;;11.95;7.53;;;22.20;80.00;;;;;;5152290;27;20023;-50
2021/09/06 07:47:36;;;;;;;8.43;6.72;;;22.30;79.50;;;;;;5152096;27;20377;-48
2021/09/06 07:50:05;;;;;;;15.85;8.27;;;22.40;80.00;;;;;;5152204;27;20019;-48
2021/09/06 07:52:30;;;;;;;13.20;7.57;;;22.50;78.90;;;;;;5151762;27;20373;-48
2021/09/06 07:54:56;;;;;;;11.70;7.63;;;22.60;79.00;;;;;;5152114;27;20019;-50
2021/09/06 07:57:22;;;;;;;10.82;6.10;;;22.70;77.80;;;;;;5132839;27;20035;-49
2021/09/06 07:59:47;;;;;;;8.93;6.68;;;22.80;77.30;;;;;;5151758;27;20373;-49
2021/09/06 08:02:13;;;;;;;10.18;6.93;;;22.80;77.90;;;;;;5152228;27;20023;-51
2021/09/06 08:04:39;;;;;;;11.10;6.72;;;23.20;78.00;;;;;;5151994;27;20015;-49
2021/09/06 08:07:05;;;;;;;9.68;7.13;;;23.10;77.00;;;;;;5151274;27;20084;-49
2021/09/06 08:09:31;;;;;;;9.68;6.78;;;23.40;78.00;;;;;;5149915;27;20053;-50
2021/09/06 08:11:57;;;;;;;10.18;7.55;;;23.50;77.60;;;;;;5132935;27;20456;-49
2021/09/06 08:14:24;;;;;;;11.07;7.38;;;23.40;76.90;;;;;;5167228;27;20037;-49
2021/09/06 08:16:50;;;;;;;9.30;7.30;;;23.80;76.80;;;;;;5151335;27;20062;-51
2021/09/06 08:19:16;;;;;;;10.25;6.95;;;23.50;76.70;;;;;;5138406;27;20023;-50
2021/09/06 08:21:42;;;;;;;11.43;7.70;;;23.50;77.50;;;;;;5153020;27;20096;-49
2021/09/06 08:24:08;;;;;;;11.10;7.20;;;23.70;77.40;;;;;;5118594;27;20095;-49
2021/09/06 08:26:33;;;;;;;9.98;7.72;;;23.90;77.70;;;;;;5137169;27;20058;-51
2021/09/06 08:28:59;;;;;;;9.70;7.78;;;24.20;77.00;;;;;;5118896;27;20035;-50
2021/09/06 08:31:26;;;;;;;11.45;7.70;;;24.20;76.40;;;;;;5119082;27;20030;-50
2021/09/06 08:33:52;;;;;;;10.10;7.05;;;24.70;76.20;;;;;;5138160;27;20023;-50
2021/09/06 08:36:18;;;;;;;9.85;6.82;;;24.80;75.50;;;;;;5118457;27;20038;-51
2021/09/06 08:38:44;;;;;;;12.55;7.68;;;25.10;74.50;;;;;;5137247;27;20015;-50
2021/09/06 08:41:10;;;;;;;9.15;7.13;;;24.60;74.30;;;;;;5135454;27;20476;-49
2021/09/06 08:43:36;;;;;;;8.13;6.47;;;25.00;74.90;;;;;;5101040;27;20034;-51
2021/09/06 08:46:02;;;;;;;10.85;7.28;;;25.20;73.90;;;;;;5137154;27;20112;-52
2021/09/06 08:48:28;;;;;;;14.35;7.43;;;25.60;73.80;;;;;;5137290;27;20015;-49
2021/09/06 08:50:55;;;;;;;10.07;7.55;;;25.30;73.60;;;;;;5136892;27;20019;-50
2021/09/06 08:53:22;;;;;;;13.38;6.88;;;25.40;72.90;;;;;;5137276;27;20019;-51
2021/09/06 08:55:48;;;;;;;8.45;6.68;;;25.20;72.00;;;;;;5136713;27;20068;-48
2021/09/06 08:58:16;;;;;;;12.15;6.97;;;24.80;73.20;;;;;;5118294;27;20088;-49
2021/09/06 09:00:46;;;;;;;11.85;7.30;;;24.80;74.40;;;;;;5137128;27;20361;-51
2021/09/06 09:03:12;;;;;;;11.77;6.78;;;24.90;72.90;;;;;;5136433;27;20038;-50
2021/09/06 09:05:38;;;;;;;8.30;7.22;;;25.20;73.10;;;;;;5136882;27;20011;-50
2021/09/06 09:08:04;;;;;;;12.13;7.43;;;25.00;73.20;;;;;;5136371;27;20460;-49
2021/09/06 09:10:38;;;;;;;8.90;6.07;;;25.60;72.40;;;;;;5150976;27;20049;-51
2021/09/06 09:13:08;;;;;;;10.80;7.20;;;25.10;71.20;;;;;;5135409;27;20039;-52
2021/09/06 09:15:36;;;;;;;9.90;7.45;;;25.80;71.50;;;;;;5135187;27;20019;-51
2021/09/06 09:18:04;;;;;;;8.00;6.97;;;25.80;71.80;;;;;;5135036;27;20424;-51
2021/09/06 09:20:57;;;;;;;8.60;6.40;;;25.30;71.50;;;;;;5135074;27;20039;-49
2021/09/06 09:23:38;;;;;;;9.65;6.75;;;25.90;71.70;;;;;;5132194;27;20058;-51
2021/09/06 09:26:04;;;;;;;10.23;6.47;;;26.10;70.00;;;;;;5135025;27;20062;-50
2021/09/06 09:28:30;;;;;;;10.07;6.47;;;26.20;71.30;;;;;;5115637;27;20042;-49
2021/09/06 09:31:14;;;;;;;12.38;6.63;;;26.40;70.80;;;;;;5114688;27;20038;-49
2021/09/06 09:33:46;;;;;;;13.35;6.65;;;26.80;70.30;;;;;;5134857;27;20419;-50
2021/09/06 09:36:12;;;;;;;14.30;6.13;;;26.90;68.20;;;;;;5134408;27;20019;-49
2021/09/06 09:38:38;;;;;;;7.90;6.03;;;27.60;69.60;;;;;;5094398;28;20027;-49
2021/09/06 09:41:11;;;;;;;7.15;5.80;;;;;;;;;;5111872;28;20122;-50
2021/09/06 09:43:37;;;;;;;8.82;6.82;;;28.30;67.50;;;;;;5111746;28;20120;-49
2021/09/06 09:46:04;;;;;;;10.68;6.40;;;27.60;67.70;;;;;;5111602;28;20118;-51
2021/09/06 09:48:30;;;;;;;7.63;6.85;;;27.60;69.30;;;;;;5111639;28;20508;-50
2021/09/06 09:50:56;;;;;;;12.57;7.00;;;27.30;69.50;;;;;;5111154;28;20110;-49
2021/09/06 09:53:22;;;;;;;11.38;6.97;;;26.90;69.60;;;;;;5050801;28;20073;-52
2021/09/06 09:55:48;;;;;;;10.32;7.50;;;26.60;70.30;;;;;;5050957;28;20033;-51
2021/09/06 09:58:16;;;;;;;10.15;7.72;;;26.00;71.40;;;;;;5034199;28;20084;-49
2021/09/06 10:00:43;;;;;;;9.80;7.45;;;25.70;71.90;;;;;;5050765;28;20045;-50
2021/09/06 10:03:10;;;;;;;9.57;7.72;;;25.70;72.40;;;;;;5050273;28;20033;-50
2021/09/06 10:05:38;;;;;;;10.38;7.10;;;25.80;72.30;;;;;;5050646;28;20029;-49
2021/09/06 10:08:09;;;;;;;14.00;8.32;;;25.60;73.20;;;;;;5050676;28;20040;-49
2021/09/06 10:10:37;;;;;;;8.88;7.30;;;25.60;72.60;;;;;;5067355;28;20556;-50
2021/09/06 10:13:09;;;;;;;10.98;7.25;;;25.40;72.70;;;;;;5090700;28;20031;-49
2021/09/06 10:15:35;;;;;;;;;;;25.90;72.60;;;;;;5090768;28;20028;-51
2021/09/06 10:18:14;;;;;;;10.77;6.85;;;25.70;71.50;;;;;;5090535;28;20397;-48
2021/09/06 10:20:40;;;;;;;8.05;6.38;;;26.10;72.80;;;;;;5040368;28;20043;-49
2021/09/06 10:23:09;;;;;;;7.80;5.78;;;26.60;69.70;;;;;;5090748;28;20540;-52
2021/09/06 10:25:38;;;;;;;8.95;6.75;;;27.10;67.30;;;;;;5090568;28;20464;-51
2021/09/06 10:28:05;;;;;;;13.15;6.35;;;27.70;67.40;;;;;;5090521;28;20036;-49
2021/09/06 10:30:41;;;;;;;9.40;5.85;;;27.50;66.40;;;;;;5089227;27;20031;-50
2021/09/06 10:33:29;;;;;;;9.55;5.90;;;27.60;67.50;;;;;;5134752;27;20026;-49
2021/09/06 10:36:19;;;;;;;9.90;6.53;;;27.00;66.90;;;;;;5133225;27;20102;-50
2021/09/06 10:39:00;;;;;;;10.20;6.65;;;26.00;69.30;;;;;;5133635;27;20221;-50
2021/09/06 10:41:26;;;;;;;9.07;6.03;;;26.40;69.10;;;;;;5132913;27;20023;-50
2021/09/06 10:43:59;;;;;;;8.02;5.22;;;26.60;68.50;;;;;;5133606;27;20441;-50
2021/09/06 10:46:28;;;;;;;10.65;6.03;;;26.90;66.90;;;;;;5133484;27;20377;-51
2021/09/06 10:49:00;;;;;;;9.65;7.20;;;27.00;66.90;;;;;;5133745;27;20019;-49
2021/09/06 10:51:27;;;;;;;;;;;27.30;67.30;;;;;;5133918;27;20118;-50
2021/09/06 10:53:57;;;;;;;15.05;8.40;;;27.00;66.50;;;;;;5133564;27;20242;-52
2021/09/06 10:56:27;;;;;;;7.47;6.40;;;27.20;66.90;;;;;;5132999;27;20019;-51
2021/09/06 10:58:54;;;;;;;12.77;6.43;;;27.20;66.60;;;;;;5133586;27;20035;-49
2021/09/06 11:01:20;;;;;;;12.00;6.78;;;27.20;66.80;;;;;;5133507;27;20031;-52
2021/09/06 11:03:47;;;;;;;11.00;5.97;;;27.20;67.00;;;;;;5133364;27;20045;-51
2021/09/06 11:06:13;;;;;;;9.18;7.00;;;28.00;67.20;;;;;;5133327;28;20387;-51
2021/09/06 11:08:39;;;;;;;10.30;6.22;;;27.40;66.30;;;;;;5131443;28;20031;-52
2021/09/06 11:11:07;;;;;;;15.18;6.72;;;27.40;66.60;;;;;;5133377;27;20023;-52
2021/09/06 11:13:47;;;;;;;11.98;6.95;;;27.30;67.00;;;;;;5133311;27;20102;-51
2021/09/06 11:16:18;;;;;;;10.75;6.60;;;27.20;67.40;;;;;;5133076;27;20055;-52
2021/09/06 11:18:46;;;;;;;12.02;6.07;;;27.50;68.40;;;;;;5133240;27;20031;-51
2021/09/06 11:21:12;;;;;;;11.68;5.75;;;27.80;68.30;;;;;;5132755;27;20032;-50
2021/09/06 11:23:46;;;;;;;11.73;6.25;;;27.80;65.60;;;;;;5133223;27;20089;-49
2021/09/06 11:26:27;;;;;;;10.25;5.93;;;27.80;65.80;;;;;;5110127;28;20417;-51
2021/09/06 11:28:53;;;;;;;9.68;5.63;;;28.30;65.60;;;;;;5110316;28;20063;-51
2021/09/06 11:31:21;;;;;;;11.35;5.72;;;28.80;65.00;;;;;;5093214;28;20054;-50
2021/09/06 11:33:56;;;;;;;8.40;5.60;;;28.40;64.90;;;;;;5109793;28;20023;-51
2021/09/06 11:36:22;;;;;;;12.50;6.15;;;28.40;66.10;;;;;;5110175;28;20024;-53
2021/09/06 11:38:49;;;;;;;7.88;5.57;;;28.50;65.70;;;;;;5110116;28;20031;-51
2021/09/06 11:41:15;;;;;;;8.07;5.50;;;28.70;67.00;;;;;;5110200;28;20375;-52
2021/09/06 11:43:42;;;;;;;9.38;4.97;;;28.50;65.20;;;;;;5110111;28;20020;-52
2021/09/06 11:46:08;;;;;;;10.90;5.30;;;28.60;64.90;;;;;;5110023;28;20461;-52
2021/09/06 11:48:45;;;;;;;10.35;4.80;;;28.70;64.90;;;;;;5109650;28;20027;-50
2021/09/06 11:51:12;;;;;;;9.93;6.10;;;28.90;66.00;;;;;;5107460;28;20036;-50
2021/09/06 11:53:38;;;;;;;8.60;5.40;;;28.50;64.90;;;;;;5111990;28;20031;-51
2021/09/06 11:56:13;;;;;;;10.07;5.22;;;28.10;63.90;;;;;;5114669;27;20057;-51
2021/09/06 11:58:44;;;;;;;10.20;4.40;;;27.50;64.00;;;;;;5113606;28;20035;-49
2021/09/06 12:01:14;;;;;;;13.35;4.75;;;27.00;63.80;;;;;;5113353;28;20028;-51
2021/09/06 12:03:40;;;;;;;9.77;4.80;;;26.90;64.50;;;;;;5113706;28;20123;-52
2021/09/06 12:06:09;;;;;;;9.93;4.57;;;26.80;64.10;;;;;;5113672;28;20111;-52
2021/09/06 12:08:35;;;;;;;6.32;4.68;;;26.90;65.30;;;;;;5113882;28;20063;-52
2021/09/06 12:11:09;;;;;;;9.75;4.65;;;27.40;64.40;;;;;;5113810;28;20050;-50
2021/09/06 12:13:36;;;;;;;6.47;4.07;;;27.90;63.50;;;;;;5113392;28;20028;-51
2021/09/06 12:16:04;;;;;;;7.32;4.38;;;;;;;;;;5079270;28;20032;-53
2021/09/06 12:18:33;;;;;;;9.45;4.75;;;28.20;60.90;;;;;;5092831;28;20455;-50
2021/09/06 12:21:06;;;;;;;7.32;4.03;;;28.60;62.20;;;;;;5093189;28;20039;-50
2021/09/06 12:23:39;;;;;;;10.73;5.53;;;28.50;60.80;;;;;;5059007;28;20400;-51
2021/09/06 12:26:07;;;;;;;7.82;4.45;;;28.40;61.30;;;;;;5092354;28;20067;-52
2021/09/06 12:28:33;;;;;;;9.68;4.20;;;28.60;60.70;;;;;;5093788;28;20044;-51
2021/09/06 12:31:04;;;;;;;7.03;4.03;;;;;;;;;;5113348;28;20471;-52
2021/09/06 12:33:30;;;;;;;10.05;4.65;;;;;;;;;;5079050;28;20040;-52
2021/09/06 12:36:00;;;;;;;7.97;4.88;;;29.10;60.50;;;;;;5079028;28;20048;-52
2021/09/06 12:38:26;;;;;;;12.52;6.07;;;28.50;60.30;;;;;;5078920;28;20066;-52
2021/09/06 12:40:51;;;;;;;8.65;4.20;;;28.60;61.30;;;;;;5112692;28;20109;-50
2021/09/06 12:43:17;;;;;;;8.40;4.40;;;28.80;60.50;;;;;;5113096;28;20028;-50
2021/09/06 12:45:43;;;;;;;6.35;3.90;;;29.00;59.90;;;;;;5112888;28;20027;-52
2021/09/06 12:48:09;;;;;;;7.10;4.28;;;29.50;60.50;;;;;;5078815;28;20038;-52
2021/09/06 12:50:34;;;;;;;8.02;4.60;;;29.20;60.00;;;;;;5134647;27;20039;-51
2021/09/06 12:53:01;;;;;;;10.27;4.43;;;28.90;60.90;;;;;;5135200;27;20024;-52
2021/09/06 12:55:27;;;;;;;7.95;5.18;;;28.90;60.20;;;;;;5135678;27;20019;-52
2021/09/06 12:57:52;;;;;;;12.35;5.20;;;28.80;60.20;;;;;;5151955;27;20504;-51